Terminal Aerodrome Forecast
Issued by NWS

Home | Current Version | Previous Version | Text Only | Print | Product List | Glossary On
Versions: 1 2 3 4 5 6 7 8 9 10 11 12 13 14
000
FTUS43 KDLH 291735
TAFBRD
TAF
KBRD 291735Z 2918/3018 27017G28KT P6SM FEW045
     FM300200 28010KT P6SM SKC
     FM301400 29015G25KT P6SM SKC=

USA.gov is the U.S. government's official web portal to all federal, state and local government web resources and services.